createdAt,value
2019-03-20T00:01:09.349Z,69.96
2019-03-20T00:03:38.500Z,69.73
2019-03-20T00:06:05.119Z,70.00
2019-03-20T00:09:26.745Z,69.63
2019-03-20T00:11:53.256Z,69.78
2019-03-20T00:14:19.830Z,70.33
2019-03-20T00:16:46.401Z,70.61
2019-03-20T00:19:13.281Z,70.59
2019-03-20T00:21:39.815Z,70.25
2019-03-20T00:24:06.320Z,70.25
2019-03-20T00:26:32.906Z,70.52
2019-03-20T00:28:59.650Z,71.24
2019-03-20T00:31:38.240Z,70.77
2019-03-20T00:36:48.574Z,70.61
2019-03-20T00:39:17.522Z,70.54
2019-03-20T00:41:44.081Z,70.62
2019-03-20T00:44:10.628Z,70.59
2019-03-20T00:46:39.288Z,70.69
2019-03-20T00:49:13.132Z,70.92
2019-03-20T00:52:02.869Z,70.87
2019-03-20T00:54:33.950Z,70.95
2019-03-20T00:57:01.435Z,71.75
2019-03-20T00:59:28.035Z,71.60
2019-03-20T01:01:59.111Z,71.71
2019-03-20T01:04:50.675Z,71.85
2019-03-20T01:07:51.753Z,71.87
2019-03-20T01:10:21.717Z,71.71
2019-03-20T01:12:54.446Z,71.34
2019-03-20T01:15:21.495Z,71.36
2019-03-20T01:17:48.151Z,71.62
2019-03-20T01:20:15.884Z,71.71
2019-03-20T01:22:43.854Z,71.74
2019-03-20T01:25:10.576Z,71.55
2019-03-20T01:27:37.163Z,71.35
2019-03-20T01:30:04.348Z,71.24
2019-03-20T01:32:30.950Z,71.19
2019-03-20T01:35:03.666Z,71.62
2019-03-20T01:37:43.552Z,71.61
2019-03-20T01:40:13.615Z,71.89
2019-03-20T01:42:49.682Z,72.03
2019-03-20T01:45:33.419Z,72.17
2019-03-20T01:48:04.000Z,72.15
2019-03-20T01:50:33.887Z,72.01
2019-03-20T01:53:03.652Z,72.02
2019-03-20T01:55:30.326Z,72.32
2019-03-20T01:57:57.258Z,72.46
2019-03-20T02:00:23.881Z,72.45
2019-03-20T02:02:51.308Z,72.66
2019-03-20T02:05:34.686Z,72.74
2019-03-20T02:07:52.452Z,72.91
2019-03-20T02:10:19.143Z,72.86
2019-03-20T02:12:45.793Z,72.98
2019-03-20T02:15:13.906Z,73.22
2019-03-20T02:17:40.674Z,73.23
2019-03-20T02:20:09.343Z,73.42
2019-03-20T02:22:35.904Z,73.62
2019-03-20T02:25:03.338Z,73.61
2019-03-20T02:27:29.837Z,73.23
2019-03-20T02:30:06.436Z,73.26
2019-03-20T02:32:33.042Z,72.97
2019-03-20T02:34:59.614Z,72.54
2019-03-20T02:37:26.547Z,72.64
2019-03-20T02:39:53.109Z,72.65
2019-03-20T02:42:19.653Z,72.30
2019-03-20T02:44:50.863Z,72.07
2019-03-20T02:47:22.170Z,72.07
2019-03-20T02:49:48.734Z,72.08
2019-03-20T02:52:17.892Z,72.00
2019-03-20T02:54:44.868Z,72.08
2019-03-20T02:57:17.491Z,72.46
2019-03-20T02:59:46.142Z,72.39
2019-03-20T03:02:13.021Z,72.00
2019-03-20T03:04:39.866Z,71.69
2019-03-20T03:07:07.677Z,71.96
2019-03-20T03:09:34.564Z,72.22
2019-03-20T03:12:01.066Z,72.44
2019-03-20T03:14:27.591Z,72.55
2019-03-20T03:16:55.710Z,73.21
2019-03-20T03:19:22.220Z,73.60
2019-03-20T03:21:56.103Z,73.65
2019-03-20T03:24:28.113Z,73.39
2019-03-20T03:26:57.596Z,73.08
2019-03-20T03:29:24.538Z,72.88
2019-03-20T03:31:51.170Z,72.77
2019-03-20T03:34:22.446Z,72.75
2019-03-20T03:36:49.340Z,72.65
2019-03-20T03:39:18.981Z,72.51
2019-03-20T03:41:48.558Z,72.58
2019-03-20T03:44:18.543Z,72.83
2019-03-20T03:49:49.197Z,73.15
2019-03-20T03:52:22.782Z,73.34
2019-03-20T03:54:49.790Z,73.18
2019-03-20T03:57:19.442Z,73.23
2019-03-20T03:59:46.397Z,72.94
2019-03-20T04:02:12.898Z,72.88
2019-03-20T04:04:39.428Z,72.77
2019-03-20T04:07:06.042Z,72.72
2019-03-20T04:09:32.612Z,72.71
2019-03-20T04:11:59.162Z,72.47
2019-03-20T04:14:25.765Z,72.49
2019-03-20T04:16:52.516Z,72.42
2019-03-20T04:19:19.014Z,72.50
2019-03-20T04:21:45.778Z,72.55
2019-03-20T04:24:12.346Z,72.62
2019-03-20T04:26:39.015Z,72.72
2019-03-20T04:29:05.602Z,72.83
2019-03-20T04:31:32.229Z,72.95
2019-03-20T04:33:58.948Z,73.35
2019-03-20T04:36:26.277Z,73.42
2019-03-20T04:38:59.055Z,73.69
2019-03-20T04:41:25.601Z,73.74
2019-03-20T04:43:57.116Z,73.96
2019-03-20T04:46:23.681Z,74.25
2019-03-20T04:48:53.223Z,74.34
2019-03-20T04:51:26.481Z,74.77
2019-03-20T04:53:56.214Z,74.74
2019-03-20T04:56:24.050Z,74.84
2019-03-20T04:58:51.615Z,74.89
2019-03-20T05:01:18.224Z,75.28
2019-03-20T05:03:51.872Z,75.31
2019-03-20T05:06:18.581Z,75.48
2019-03-20T05:08:48.536Z,75.20
2019-03-20T05:11:34.116Z,75.52
2019-03-20T05:14:01.006Z,75.51
2019-03-20T05:16:28.495Z,75.29
2019-03-20T05:18:55.139Z,75.13
2019-03-20T05:21:28.607Z,75.12
2019-03-20T05:23:57.290Z,75.26
2019-03-20T05:26:29.091Z,75.41
2019-03-20T05:28:56.072Z,75.30
2019-03-20T05:31:42.836Z,75.30
2019-03-20T05:34:09.474Z,75.24
2019-03-20T05:36:36.063Z,75.09
2019-03-20T05:39:05.291Z,75.20
2019-03-20T05:41:37.061Z,75.17
2019-03-20T05:44:03.778Z,74.79
2019-03-20T05:46:31.548Z,74.49
2019-03-20T05:48:58.391Z,74.19
2019-03-20T05:51:27.738Z,74.00
2019-03-20T05:53:58.175Z,73.72
2019-03-20T05:56:37.946Z,73.35
2019-03-20T05:59:09.887Z,73.06
2019-03-20T06:01:39.559Z,72.82
2019-03-20T06:04:09.388Z,72.96
2019-03-20T06:06:35.955Z,72.97
2019-03-20T06:09:05.704Z,72.85
2019-03-20T06:11:32.275Z,72.47
2019-03-20T06:13:59.147Z,71.82
2019-03-20T06:16:25.691Z,71.55
2019-03-20T06:18:55.605Z,71.57
2019-03-20T06:21:22.251Z,71.37
2019-03-20T06:23:58.155Z,71.03
2019-03-20T06:26:24.729Z,70.61
2019-03-20T06:28:55.242Z,70.34
2019-03-20T06:31:21.808Z,69.39
2019-03-20T06:33:48.862Z,68.67
2019-03-20T06:36:18.804Z,68.33
2019-03-20T06:38:45.390Z,68.60
2019-03-20T06:41:12.426Z,67.60
2019-03-20T06:43:39.849Z,67.20
2019-03-20T06:46:06.691Z,66.31
2019-03-20T06:48:33.278Z,66.08
2019-03-20T06:50:59.971Z,64.35
2019-03-20T06:53:28.760Z,63.78
2019-03-20T06:55:55.343Z,63.87
2019-03-20T06:58:24.755Z,63.51
2019-03-20T07:01:27.652Z,62.87
2019-03-20T07:04:18.272Z,62.22
2019-03-20T07:06:52.427Z,61.15
2019-03-20T07:09:29.719Z,59.40
2019-03-20T07:11:56.902Z,58.52
2019-03-20T07:14:23.521Z,57.48
2019-03-20T07:16:54.510Z,56.81
2019-03-20T07:19:21.437Z,54.90
2019-03-20T07:21:52.341Z,53.68
2019-03-20T07:24:19.357Z,51.90
2019-03-20T07:26:46.282Z,49.73
2019-03-20T07:29:12.921Z,48.77
2019-03-20T07:31:40.108Z,48.13
2019-03-20T07:34:08.070Z,47.26
2019-03-20T07:36:35.492Z,46.96
2019-03-20T07:39:04.101Z,47.33
2019-03-20T07:41:30.625Z,46.44
2019-03-20T07:43:57.323Z,45.54
2019-03-20T07:46:23.925Z,44.83
2019-03-20T07:48:51.575Z,44.49
2019-03-20T07:51:18.298Z,43.40
2019-03-20T07:53:44.839Z,43.43
2019-03-20T07:56:12.592Z,43.15
2019-03-20T07:58:39.282Z,42.32
2019-03-20T08:01:06.381Z,41.74
2019-03-20T08:03:34.803Z,41.21
2019-03-20T08:06:02.026Z,40.97
2019-03-20T08:08:29.691Z,41.00
2019-03-20T08:10:56.854Z,40.40
2019-03-20T08:13:23.893Z,39.64
2019-03-20T08:15:51.245Z,39.59
2019-03-20T08:18:17.885Z,39.28
2019-03-20T08:20:44.475Z,39.19
2019-03-20T08:23:13.466Z,39.78
2019-03-20T08:25:40.214Z,39.08
2019-03-20T08:28:06.935Z,40.40
2019-03-20T08:30:43.118Z,39.41
2019-03-20T08:33:09.649Z,38.86
2019-03-20T08:35:44.266Z,38.27
2019-03-20T08:38:18.140Z,38.76
2019-03-20T08:40:39.290Z,37.87
2019-03-20T08:43:05.854Z,38.27
2019-03-20T08:45:32.495Z,38.76
2019-03-20T08:48:00.603Z,37.93
2019-03-20T08:50:27.200Z,37.47
2019-03-20T08:52:55.134Z,37.96
2019-03-20T08:55:21.863Z,37.32
2019-03-20T08:57:48.751Z,38.06
2019-03-20T09:00:16.159Z,36.73
2019-03-20T09:02:42.889Z,36.94
2019-03-20T09:05:09.725Z,35.66
2019-03-20T09:07:46.696Z,36.44
2019-03-20T09:10:06.917Z,34.80
2019-03-20T09:12:33.475Z,34.89
2019-03-20T09:15:00.169Z,34.18
2019-03-20T09:17:27.095Z,34.32
2019-03-20T09:19:54.093Z,34.33
2019-03-20T09:22:20.619Z,34.47
2019-03-20T09:24:47.165Z,34.67
2019-03-20T09:27:14.190Z,34.13
2019-03-20T09:29:41.276Z,33.90
2019-03-20T09:32:07.959Z,33.97
2019-03-20T09:34:34.676Z,33.25
2019-03-20T09:37:01.435Z,33.21
2019-03-20T09:39:27.950Z,33.77
2019-03-20T09:41:54.645Z,33.24
2019-03-20T09:44:21.391Z,33.73
2019-03-20T09:46:47.952Z,33.78
2019-03-20T09:49:14.536Z,35.17
2019-03-20T09:51:41.139Z,34.36
2019-03-20T09:54:08.699Z,34.45
2019-03-20T09:56:35.391Z,33.61
2019-03-20T09:59:02.023Z,34.74
2019-03-20T10:01:28.705Z,34.15
2019-03-20T10:03:55.764Z,34.10
2019-03-20T10:06:22.736Z,35.38
2019-03-20T10:08:54.345Z,34.88
2019-03-20T10:11:20.192Z,34.84
2019-03-20T10:13:46.904Z,34.82
2019-03-20T10:16:13.440Z,34.59
2019-03-20T10:18:40.816Z,36.81
2019-03-20T10:21:07.526Z,35.68
2019-03-20T10:23:34.137Z,36.20
2019-03-20T10:26:01.013Z,35.18
2019-03-20T10:28:28.053Z,35.46
2019-03-20T10:30:54.876Z,34.98
2019-03-20T10:33:24.362Z,34.55
2019-03-20T10:35:51.074Z,35.21
2019-03-20T10:38:17.635Z,34.11
2019-03-20T10:40:44.346Z,34.25
2019-03-20T10:43:10.888Z,34.51
2019-03-20T10:45:37.704Z,34.02
2019-03-20T10:48:07.245Z,34.05
2019-03-20T10:50:34.080Z,33.69
2019-03-20T10:53:00.795Z,33.24
2019-03-20T10:55:52.381Z,32.03
2019-03-20T10:58:19.398Z,32.27
2019-03-20T11:00:46.353Z,33.27
2019-03-20T11:03:14.334Z,32.03
2019-03-20T11:05:42.289Z,32.21
2019-03-20T11:08:08.836Z,32.21
2019-03-20T11:10:36.222Z,33.53
2019-03-20T11:13:03.247Z,32.70
2019-03-20T11:15:29.998Z,32.92
2019-03-20T11:17:56.695Z,33.14
2019-03-20T11:20:23.421Z,34.08
2019-03-20T11:22:50.495Z,33.92
2019-03-20T11:25:19.433Z,32.16
2019-03-20T11:27:47.404Z,32.58
2019-03-20T11:30:20.609Z,32.14
2019-03-20T11:32:47.520Z,32.14
2019-03-20T11:35:14.221Z,30.99
2019-03-20T11:37:41.331Z,30.99
2019-03-20T11:40:10.679Z,31.57
2019-03-20T11:42:37.609Z,30.75
2019-03-20T11:45:04.955Z,30.75
2019-03-20T11:47:31.797Z,30.03
2019-03-20T11:49:58.578Z,30.67
2019-03-20T11:52:25.718Z,29.77
2019-03-20T11:54:52.939Z,30.04
2019-03-20T11:57:21.632Z,30.27
2019-03-20T11:59:48.157Z,30.28
2019-03-20T12:02:15.289Z,29.85
2019-03-20T12:04:42.126Z,30.70
2019-03-20T12:07:08.889Z,30.55
2019-03-20T12:09:41.227Z,30.35
2019-03-20T12:12:07.723Z,30.36
2019-03-20T12:14:34.305Z,30.26
2019-03-20T12:17:01.227Z,29.41
2019-03-20T12:19:27.929Z,29.66
2019-03-20T12:21:54.743Z,29.63
2019-03-20T12:24:21.348Z,29.66
2019-03-20T12:26:48.206Z,29.20
2019-03-20T12:29:14.809Z,29.16
2019-03-20T12:31:41.606Z,29.55
2019-03-20T12:34:08.251Z,29.63
2019-03-20T12:36:35.076Z,30.79
2019-03-20T12:39:01.658Z,29.70
2019-03-20T12:41:28.326Z,29.68
2019-03-20T12:43:55.998Z,30.44
2019-03-20T12:46:22.664Z,30.44
2019-03-20T12:48:49.325Z,30.39
2019-03-20T12:51:15.879Z,30.09
2019-03-20T12:53:43.541Z,31.05
2019-03-20T12:56:10.109Z,31.65
2019-03-20T12:58:36.618Z,31.38
2019-03-20T13:01:04.274Z,31.16
2019-03-20T13:03:31.009Z,32.01
2019-03-20T13:05:57.586Z,31.17
2019-03-20T13:08:24.669Z,31.93
2019-03-20T13:10:51.298Z,32.81
2019-03-20T13:13:19.964Z,33.61
2019-03-20T13:15:46.738Z,33.99
2019-03-20T13:18:17.434Z,33.26
2019-03-20T13:20:44.277Z,33.33
2019-03-20T13:23:12.775Z,32.81
2019-03-20T13:25:39.558Z,33.39
2019-03-20T13:28:06.566Z,33.16
2019-03-20T13:30:36.253Z,33.86
2019-03-20T13:33:03.409Z,33.57
2019-03-20T13:35:30.006Z,33.16
2019-03-20T13:37:56.935Z,33.68
2019-03-20T13:40:24.417Z,32.47
2019-03-20T13:42:51.088Z,31.07
2019-03-20T13:45:17.760Z,30.75
2019-03-20T13:47:44.473Z,31.12
2019-03-20T13:50:12.127Z,31.81
2019-03-20T13:52:40.346Z,30.35
2019-03-20T13:55:07.436Z,29.97
2019-03-20T13:57:34.240Z,30.50
2019-03-20T14:00:01.094Z,32.65
2019-03-20T14:02:27.730Z,33.03
2019-03-20T14:04:54.257Z,33.92
2019-03-20T14:07:21.395Z,33.67
2019-03-20T14:09:48.142Z,34.80
2019-03-20T14:12:15.009Z,34.36
2019-03-20T14:14:41.688Z,33.69
2019-03-20T14:17:08.451Z,33.36
2019-03-20T14:19:34.993Z,33.31
2019-03-20T14:22:01.701Z,33.71
2019-03-20T14:24:28.372Z,33.71
2019-03-20T14:26:54.915Z,34.63
2019-03-20T14:29:21.538Z,34.24
2019-03-20T14:31:48.622Z,34.51
2019-03-20T14:34:15.655Z,35.74
2019-03-20T14:36:42.236Z,35.60
2019-03-20T14:39:09.523Z,34.96
2019-03-20T14:41:36.147Z,35.94
2019-03-20T14:44:02.908Z,36.36
2019-03-20T14:46:29.493Z,35.08
2019-03-20T14:48:56.549Z,35.66
2019-03-20T14:51:23.387Z,35.36
2019-03-20T14:53:50.054Z,36.10
2019-03-20T14:56:18.269Z,35.74
2019-03-20T14:58:45.354Z,36.14
2019-03-20T15:01:12.465Z,36.13
2019-03-20T15:03:39.737Z,36.49
2019-03-20T15:06:06.966Z,36.19
2019-03-20T15:08:33.676Z,35.42
2019-03-20T15:11:00.825Z,34.27
2019-03-20T15:13:28.473Z,34.81
2019-03-20T15:18:23.793Z,36.50
2019-03-20T15:20:50.449Z,36.13
2019-03-20T15:23:17.124Z,36.07
2019-03-20T15:25:43.918Z,35.83
2019-03-20T15:28:10.603Z,35.21
2019-03-20T15:30:37.515Z,33.95
2019-03-20T15:33:04.842Z,33.97
2019-03-20T15:35:31.405Z,35.15
2019-03-20T15:37:58.367Z,35.88
2019-03-20T15:40:25.063Z,36.03
2019-03-20T15:42:51.800Z,36.52
2019-03-20T15:45:18.503Z,37.16
2019-03-20T15:47:45.395Z,37.23
2019-03-20T15:50:13.618Z,36.96
2019-03-20T15:52:40.214Z,36.94
2019-03-20T15:55:12.943Z,38.71
2019-03-20T15:57:40.283Z,38.94
2019-03-20T16:00:12.306Z,39.52
2019-03-20T16:02:39.187Z,38.60
2019-03-20T16:05:06.866Z,38.78
2019-03-20T16:07:34.426Z,38.47
2019-03-20T16:10:04.332Z,38.26
2019-03-20T16:12:31.166Z,38.70
2019-03-20T16:14:57.992Z,38.96
2019-03-20T16:17:24.711Z,38.37
2019-03-20T16:19:53.694Z,38.10
2019-03-20T16:22:20.275Z,37.86
2019-03-20T16:24:46.825Z,39.14
2019-03-20T16:27:13.398Z,39.87
2019-03-20T16:29:41.236Z,40.00
2019-03-20T16:32:08.081Z,40.24
2019-03-20T16:34:34.698Z,40.50
2019-03-20T16:37:01.299Z,40.87
2019-03-20T16:39:28.116Z,40.21
2019-03-20T16:41:54.638Z,40.88
2019-03-20T16:44:21.226Z,40.51
2019-03-20T16:46:48.311Z,40.75
2019-03-20T16:49:14.951Z,41.03
2019-03-20T16:51:41.538Z,41.47
2019-03-20T16:54:08.506Z,41.54
2019-03-20T16:56:35.288Z,42.43
2019-03-20T16:59:01.948Z,41.76
2019-03-20T17:01:28.629Z,42.09
2019-03-20T17:03:55.255Z,42.32
2019-03-20T17:06:23.007Z,42.51
2019-03-20T17:08:49.676Z,42.95
2019-03-20T17:11:26.463Z,43.22
2019-03-20T17:13:46.136Z,43.49
2019-03-20T17:16:12.677Z,44.05
2019-03-20T17:18:39.413Z,44.05
2019-03-20T17:21:06.123Z,44.46
2019-03-20T17:23:32.717Z,44.66
2019-03-20T17:25:59.335Z,44.89
2019-03-20T17:28:25.894Z,45.04
2019-03-20T17:30:52.679Z,45.98
2019-03-20T17:33:20.018Z,46.47
2019-03-20T17:35:46.700Z,47.51
2019-03-20T17:38:13.407Z,48.74
2019-03-20T17:40:39.969Z,49.00
2019-03-20T17:43:06.822Z,49.31
2019-03-20T17:45:34.173Z,49.93
2019-03-20T17:48:01.027Z,49.84
2019-03-20T17:50:29.198Z,50.29
2019-03-20T17:52:58.404Z,50.34
2019-03-20T17:55:25.719Z,50.85
2019-03-20T17:57:52.211Z,51.72
2019-03-20T18:00:27.420Z,52.45
2019-03-20T18:02:54.233Z,53.91
2019-03-20T18:05:21.082Z,53.58
2019-03-20T18:07:50.325Z,53.94
2019-03-20T18:10:17.307Z,54.67
2019-03-20T18:12:43.998Z,55.18
2019-03-20T18:15:11.080Z,54.69
2019-03-20T18:17:37.830Z,54.63
2019-03-20T18:20:05.131Z,54.51
2019-03-20T18:22:31.576Z,54.53
2019-03-20T18:24:58.154Z,54.95
2019-03-20T18:27:24.641Z,55.16
2019-03-20T18:29:52.602Z,55.62
2019-03-20T18:32:19.075Z,55.52
2019-03-20T18:34:45.714Z,55.55
2019-03-20T18:37:15.309Z,55.87
2019-03-20T18:39:42.205Z,56.13
2019-03-20T18:42:09.696Z,56.29
2019-03-20T18:44:36.375Z,56.17
2019-03-20T18:47:07.299Z,56.04
2019-03-20T18:49:33.806Z,57.29
2019-03-20T18:52:00.812Z,57.45
2019-03-20T18:54:27.678Z,57.42
2019-03-20T18:56:54.463Z,57.04
2019-03-20T18:59:21.376Z,56.98
2019-03-20T19:01:50.757Z,57.46
2019-03-20T19:04:17.267Z,57.48
2019-03-20T19:06:43.806Z,57.82
2019-03-20T19:09:10.313Z,58.21
2019-03-20T19:11:38.984Z,57.91
2019-03-20T19:14:05.853Z,57.80
2019-03-20T19:16:33.056Z,58.11
2019-03-20T19:18:59.949Z,59.19
2019-03-20T19:21:26.624Z,59.34
2019-03-20T19:23:53.515Z,59.26
2019-03-20T19:26:20.036Z,59.11
2019-03-20T19:28:46.886Z,59.34
2019-03-20T19:31:14.033Z,59.39
2019-03-20T19:33:42.630Z,60.16
2019-03-20T19:36:09.201Z,60.05
2019-03-20T19:38:35.950Z,60.60
2019-03-20T19:41:02.956Z,60.88
2019-03-20T19:43:29.458Z,60.50
2019-03-20T19:45:56.064Z,60.61
2019-03-20T19:48:22.755Z,60.76
2019-03-20T19:50:49.343Z,61.73
2019-03-20T19:53:16.355Z,61.75
2019-03-20T19:55:42.989Z,60.71
2019-03-20T19:58:09.575Z,60.83
2019-03-20T20:00:36.394Z,61.00
2019-03-20T20:03:03.348Z,61.34
2019-03-20T20:05:29.952Z,61.16
2019-03-20T20:07:56.522Z,61.27
2019-03-20T20:10:23.040Z,61.17
2019-03-20T20:12:49.729Z,61.37
2019-03-20T20:15:19.414Z,61.71
2019-03-20T20:17:46.999Z,61.71
2019-03-20T20:20:16.327Z,61.68
2019-03-20T20:22:43.437Z,61.40
2019-03-20T20:25:10.148Z,61.03
2019-03-20T20:27:36.796Z,61.04
2019-03-20T20:30:03.925Z,61.37
2019-03-20T20:32:35.234Z,61.66
2019-03-20T20:35:01.891Z,61.68
2019-03-20T20:37:28.477Z,61.83
2019-03-20T20:39:55.161Z,62.13
2019-03-20T20:42:21.778Z,62.63
2019-03-20T20:44:48.343Z,62.50
2019-03-20T20:47:14.845Z,62.28
2019-03-20T20:49:41.719Z,61.23
2019-03-20T20:52:18.756Z,61.21
2019-03-20T20:54:36.651Z,61.38
2019-03-20T20:57:03.608Z,61.51
2019-03-20T20:59:30.561Z,61.39
2019-03-20T21:01:57.130Z,60.77
2019-03-20T21:04:23.685Z,60.39
2019-03-20T21:06:50.244Z,60.49
2019-03-20T21:09:16.975Z,60.35
2019-03-20T21:11:43.509Z,61.47
2019-03-20T21:14:10.587Z,61.44
2019-03-20T21:16:37.621Z,61.37
2019-03-20T21:19:36.723Z,61.85
2019-03-20T21:22:46.624Z,62.31
2019-03-20T21:25:16.043Z,61.53
2019-03-20T21:28:21.896Z,61.04
2019-03-20T21:31:00.211Z,60.66
2019-03-20T21:33:49.693Z,60.54
2019-03-20T21:37:04.277Z,60.76
2019-03-20T21:39:32.566Z,61.31
2019-03-20T21:42:44.724Z,61.12
2019-03-20T21:45:39.107Z,60.87
2019-03-20T21:48:14.806Z,60.26
2019-03-20T21:51:09.932Z,59.85
2019-03-20T21:54:18.521Z,60.12
2019-03-20T21:57:33.445Z,61.48
2019-03-20T22:00:42.338Z,61.67
2019-03-20T22:03:09.400Z,61.61
2019-03-20T22:06:14.055Z,61.54
2019-03-20T22:08:43.226Z,62.20
2019-03-20T22:11:56.770Z,61.53
2019-03-20T22:14:23.909Z,61.19
2019-03-20T22:17:50.277Z,61.25
2019-03-20T22:20:43.154Z,61.26
2019-03-20T22:23:54.874Z,60.67
2019-03-20T22:26:56.150Z,60.92
2019-03-20T22:29:24.715Z,60.60
2019-03-20T22:32:41.553Z,60.07
2019-03-20T22:35:53.821Z,60.10
2019-03-20T22:39:04.112Z,59.92
2019-03-20T22:42:08.055Z,60.07
2019-03-20T22:44:38.799Z,59.79
2019-03-20T22:47:41.070Z,59.46
2019-03-20T22:50:33.482Z,59.76
2019-03-20T22:53:29.392Z,59.89
2019-03-20T22:56:26.092Z,60.07
2019-03-20T22:58:53.298Z,60.15
2019-03-20T23:01:48.027Z,60.40
2019-03-20T23:04:22.071Z,60.87
2019-03-20T23:06:49.178Z,60.90
2019-03-20T23:09:16.248Z,60.58
2019-03-20T23:11:45.430Z,60.25
2019-03-20T23:14:12.542Z,60.46
2019-03-20T23:16:39.666Z,60.60
2019-03-20T23:19:06.900Z,60.61
2019-03-20T23:21:33.986Z,60.60
2019-03-20T23:24:03.319Z,60.63
2019-03-20T23:26:30.522Z,60.90
2019-03-20T23:28:57.799Z,61.06
2019-03-20T23:31:30.905Z,61.14
2019-03-20T23:33:58.340Z,60.72
2019-03-20T23:36:26.046Z,60.49
2019-03-20T23:38:53.120Z,61.18
2019-03-20T23:41:20.171Z,61.46
2019-03-20T23:43:52.836Z,62.45
2019-03-20T23:46:16.487Z,62.39
2019-03-20T23:48:50.104Z,62.13
2019-03-20T23:51:27.483Z,62.61
2019-03-20T23:53:55.485Z,62.50
2019-03-20T23:56:23.782Z,62.86
2019-03-20T23:58:51.217Z,62.90
